sensor_id;sensor_type;location;lat;lon;timestamp;temperature;humidity
42913;DHT22;50720;54.324;18.558;2023-02-02T00:00:34;1.90;99.90
42913;DHT22;50720;54.324;18.558;2023-02-02T00:03:23;2.00;99.90
42913;DHT22;50720;54.324;18.558;2023-02-02T00:05:53;2.00;99.90
42913;DHT22;50720;54.324;18.558;2023-02-02T00:08:23;2.20;99.90
42913;DHT22;50720;54.324;18.558;2023-02-02T00:10:54;2.20;99.90
42913;DHT22;50720;54.324;18.558;2023-02-02T00:13:23;2.30;99.90
42913;DHT22;50720;54.324;18.558;2023-02-02T00:15:53;2.30;99.90
42913;DHT22;50720;54.324;18.558;2023-02-02T00:18:23;2.40;99.90
42913;DHT22;50720;54.324;18.558;2023-02-02T00:20:52;2.50;99.90
42913;DHT22;50720;54.324;18.558;2023-02-02T00:23:22;2.50;99.90
42913;DHT22;50720;54.324;18.558;2023-02-02T00:25:53;2.50;99.90
42913;DHT22;50720;54.324;18.558;2023-02-02T00:28:22;2.60;99.90
42913;DHT22;50720;54.324;18.558;2023-02-02T00:30:52;2.60;99.90
42913;DHT22;50720;54.324;18.558;2023-02-02T00:33:21;2.60;99.90
42913;DHT22;50720;54.324;18.558;2023-02-02T00:35:51;2.70;99.90
42913;DHT22;50720;54.324;18.558;2023-02-02T00:38:20;2.70;99.90
42913;DHT22;50720;54.324;18.558;2023-02-02T00:40:50;2.80;99.90
42913;DHT22;50720;54.324;18.558;2023-02-02T00:43:21;2.80;99.90
42913;DHT22;50720;54.324;18.558;2023-02-02T00:45:50;2.80;99.90
42913;DHT22;50720;54.324;18.558;2023-02-02T00:48:19;2.80;99.90
42913;DHT22;50720;54.324;18.558;2023-02-02T00:50:49;2.90;99.90
42913;DHT22;50720;54.324;18.558;2023-02-02T00:53:18;2.90;99.90
42913;DHT22;50720;54.324;18.558;2023-02-02T00:55:48;2.90;99.90
42913;DHT22;50720;54.324;18.558;2023-02-02T00:58:17;3.00;99.90
42913;DHT22;50720;54.324;18.558;2023-02-02T01:00:49;2.90;99.90
42913;DHT22;50720;54.324;18.558;2023-02-02T01:03:18;3.00;99.90
42913;DHT22;50720;54.324;18.558;2023-02-02T01:05:48;3.00;99.90
42913;DHT22;50720;54.324;18.558;2023-02-02T01:08:18;3.00;99.90
42913;DHT22;50720;54.324;18.558;2023-02-02T01:10:48;3.10;99.90
42913;DHT22;50720;54.324;18.558;2023-02-02T01:13:17;3.10;99.90
42913;DHT22;50720;54.324;18.558;2023-02-02T01:15:49;3.10;99.90
42913;DHT22;50720;54.324;18.558;2023-02-02T01:18:23;3.10;99.90
42913;DHT22;50720;54.324;18.558;2023-02-02T01:20:56;3.10;99.90
42913;DHT22;50720;54.324;18.558;2023-02-02T01:23:26;3.10;99.90
42913;DHT22;50720;54.324;18.558;2023-02-02T01:25:57;3.10;99.90
42913;DHT22;50720;54.324;18.558;2023-02-02T01:28:26;3.20;99.90
42913;DHT22;50720;54.324;18.558;2023-02-02T01:30:58;3.20;99.90
42913;DHT22;50720;54.324;18.558;2023-02-02T01:33:33;3.10;99.90
42913;DHT22;50720;54.324;18.558;2023-02-02T01:36:05;3.20;99.90
42913;DHT22;50720;54.324;18.558;2023-02-02T01:38:35;3.20;99.90
42913;DHT22;50720;54.324;18.558;2023-02-02T01:41:04;3.10;99.90
42913;DHT22;50720;54.324;18.558;2023-02-02T01:43:54;3.20;99.90
42913;DHT22;50720;54.324;18.558;2023-02-02T01:46:27;3.10;99.90
42913;DHT22;50720;54.324;18.558;2023-02-02T01:49:00;3.10;99.90
42913;DHT22;50720;54.324;18.558;2023-02-02T01:51:39;3.10;99.90
42913;DHT22;50720;54.324;18.558;2023-02-02T01:54:12;3.00;99.90
42913;DHT22;50720;54.324;18.558;2023-02-02T01:56:45;3.00;99.90
42913;DHT22;50720;54.324;18.558;2023-02-02T01:59:17;3.00;99.90
42913;DHT22;50720;54.324;18.558;2023-02-02T02:01:49;3.00;99.90
42913;DHT22;50720;54.324;18.558;2023-02-02T02:04:22;3.00;99.90
42913;DHT22;50720;54.324;18.558;2023-02-02T02:06:52;3.00;99.90
42913;DHT22;50720;54.324;18.558;2023-02-02T02:09:22;3.00;99.90
42913;DHT22;50720;54.324;18.558;2023-02-02T02:11:53;3.00;99.90
42913;DHT22;50720;54.324;18.558;2023-02-02T02:14:23;2.90;99.90
42913;DHT22;50720;54.324;18.558;2023-02-02T02:17:26;3.00;99.90
42913;DHT22;50720;54.324;18.558;2023-02-02T02:27:23;2.90;99.90
42913;DHT22;50720;54.324;18.558;2023-02-02T02:30:17;2.90;99.90
42913;DHT22;50720;54.324;18.558;2023-02-02T02:32:52;2.90;99.90
42913;DHT22;50720;54.324;18.558;2023-02-02T02:35:30;2.90;99.90
42913;DHT22;50720;54.324;18.558;2023-02-02T02:38:06;3.00;99.90
42913;DHT22;50720;54.324;18.558;2023-02-02T02:40:41;2.90;99.90
42913;DHT22;50720;54.324;18.558;2023-02-02T02:43:15;2.90;99.90
42913;DHT22;50720;54.324;18.558;2023-02-02T02:45:47;3.00;99.90
42913;DHT22;50720;54.324;18.558;2023-02-02T02:48:18;3.00;99.90
42913;DHT22;50720;54.324;18.558;2023-02-02T02:50:48;3.00;99.90
42913;DHT22;50720;54.324;18.558;2023-02-02T02:53:19;3.00;99.90
42913;DHT22;50720;54.324;18.558;2023-02-02T02:55:59;2.90;99.90
42913;DHT22;50720;54.324;18.558;2023-02-02T02:58:37;2.90;99.90
42913;DHT22;50720;54.324;18.558;2023-02-02T03:01:13;3.00;99.90
42913;DHT22;50720;54.324;18.558;2023-02-02T03:03:57;2.90;99.90
42913;DHT22;50720;54.324;18.558;2023-02-02T03:06:36;2.90;99.90
42913;DHT22;50720;54.324;18.558;2023-02-02T03:09:11;2.90;99.90
42913;DHT22;50720;54.324;18.558;2023-02-02T03:11:43;3.00;99.90
42913;DHT22;50720;54.324;18.558;2023-02-02T03:14:13;2.90;99.90
42913;DHT22;50720;54.324;18.558;2023-02-02T03:16:43;2.90;99.90
42913;DHT22;50720;54.324;18.558;2023-02-02T03:19:14;2.90;99.90
42913;DHT22;50720;54.324;18.558;2023-02-02T03:21:44;2.90;99.90
42913;DHT22;50720;54.324;18.558;2023-02-02T03:24:13;2.90;99.90
42913;DHT22;50720;54.324;18.558;2023-02-02T03:26:44;2.90;99.90
42913;DHT22;50720;54.324;18.558;2023-02-02T03:29:14;2.80;99.90
42913;DHT22;50720;54.324;18.558;2023-02-02T03:31:44;2.80;99.90
42913;DHT22;50720;54.324;18.558;2023-02-02T03:34:15;2.80;99.90
42913;DHT22;50720;54.324;18.558;2023-02-02T03:36:45;2.80;99.90
42913;DHT22;50720;54.324;18.558;2023-02-02T03:39:15;2.80;99.90
42913;DHT22;50720;54.324;18.558;2023-02-02T03:41:45;2.80;99.90
42913;DHT22;50720;54.324;18.558;2023-02-02T03:44:14;2.80;99.90
42913;DHT22;50720;54.324;18.558;2023-02-02T03:46:44;2.80;99.90
42913;DHT22;50720;54.324;18.558;2023-02-02T03:49:15;2.80;99.90
42913;DHT22;50720;54.324;18.558;2023-02-02T03:51:44;2.80;99.90
42913;DHT22;50720;54.324;18.558;2023-02-02T03:54:14;2.80;99.90
42913;DHT22;50720;54.324;18.558;2023-02-02T03:56:44;2.80;99.90
42913;DHT22;50720;54.324;18.558;2023-02-02T03:59:13;2.80;99.90
42913;DHT22;50720;54.324;18.558;2023-02-02T04:01:43;2.80;99.90
42913;DHT22;50720;54.324;18.558;2023-02-02T04:04:12;2.80;99.90
42913;DHT22;50720;54.324;18.558;2023-02-02T04:06:44;2.70;99.90
42913;DHT22;50720;54.324;18.558;2023-02-02T04:09:13;2.70;99.90
42913;DHT22;50720;54.324;18.558;2023-02-02T04:11:43;2.70;99.90
42913;DHT22;50720;54.324;18.558;2023-02-02T04:14:12;2.70;99.90
42913;DHT22;50720;54.324;18.558;2023-02-02T04:16:42;2.70;99.90
42913;DHT22;50720;54.324;18.558;2023-02-02T04:19:11;2.80;99.90
42913;DHT22;50720;54.324;18.558;2023-02-02T04:21:43;2.70;99.90
42913;DHT22;50720;54.324;18.558;2023-02-02T04:24:13;2.70;99.90
42913;DHT22;50720;54.324;18.558;2023-02-02T04:26:43;2.70;99.90
42913;DHT22;50720;54.324;18.558;2023-02-02T04:29:12;2.80;99.90
42913;DHT22;50720;54.324;18.558;2023-02-02T04:31:42;2.70;99.90
42913;DHT22;50720;54.324;18.558;2023-02-02T04:34:11;2.80;99.90
42913;DHT22;50720;54.324;18.558;2023-02-02T04:36:41;2.70;99.90
42913;DHT22;50720;54.324;18.558;2023-02-02T04:39:11;2.80;99.90
42913;DHT22;50720;54.324;18.558;2023-02-02T04:41:42;2.80;99.90
42913;DHT22;50720;54.324;18.558;2023-02-02T04:44:13;2.80;99.90
42913;DHT22;50720;54.324;18.558;2023-02-02T04:46:44;2.80;99.90
42913;DHT22;50720;54.324;18.558;2023-02-02T04:49:14;2.80;99.90
42913;DHT22;50720;54.324;18.558;2023-02-02T04:51:43;2.80;99.90
42913;DHT22;50720;54.324;18.558;2023-02-02T04:54:14;2.80;99.90
42913;DHT22;50720;54.324;18.558;2023-02-02T04:56:44;2.70;99.90
42913;DHT22;50720;54.324;18.558;2023-02-02T04:59:13;2.70;99.90
42913;DHT22;50720;54.324;18.558;2023-02-02T05:01:43;2.70;99.90
42913;DHT22;50720;54.324;18.558;2023-02-02T05:04:14;2.70;99.90
42913;DHT22;50720;54.324;18.558;2023-02-02T05:06:44;2.70;99.90
42913;DHT22;50720;54.324;18.558;2023-02-02T05:09:14;2.70;99.90
42913;DHT22;50720;54.324;18.558;2023-02-02T05:11:44;2.70;99.90
42913;DHT22;50720;54.324;18.558;2023-02-02T05:14:14;2.70;99.90
42913;DHT22;50720;54.324;18.558;2023-02-02T05:16:45;2.70;99.90
42913;DHT22;50720;54.324;18.558;2023-02-02T05:19:16;2.70;99.90
42913;DHT22;50720;54.324;18.558;2023-02-02T05:21:46;2.70;99.90
42913;DHT22;50720;54.324;18.558;2023-02-02T05:24:19;2.70;99.90
42913;DHT22;50720;54.324;18.558;2023-02-02T05:26:49;2.70;99.90
42913;DHT22;50720;54.324;18.558;2023-02-02T05:29:19;2.60;99.90
42913;DHT22;50720;54.324;18.558;2023-02-02T05:31:50;2.70;99.90
42913;DHT22;50720;54.324;18.558;2023-02-02T05:34:19;2.60;99.90
42913;DHT22;50720;54.324;18.558;2023-02-02T05:36:49;2.60;99.90
42913;DHT22;50720;54.324;18.558;2023-02-02T05:39:21;2.60;99.90
42913;DHT22;50720;54.324;18.558;2023-02-02T05:41:51;2.60;99.90
42913;DHT22;50720;54.324;18.558;2023-02-02T05:44:21;2.60;99.90
42913;DHT22;50720;54.324;18.558;2023-02-02T05:46:51;2.60;99.90
42913;DHT22;50720;54.324;18.558;2023-02-02T05:49:21;2.60;99.90
42913;DHT22;50720;54.324;18.558;2023-02-02T05:51:53;2.60;99.90
42913;DHT22;50720;54.324;18.558;2023-02-02T05:54:25;2.60;99.90
42913;DHT22;50720;54.324;18.558;2023-02-02T05:56:55;2.60;99.90
42913;DHT22;50720;54.324;18.558;2023-02-02T05:59:27;2.60;99.90
42913;DHT22;50720;54.324;18.558;2023-02-02T06:01:57;2.60;99.90
42913;DHT22;50720;54.324;18.558;2023-02-02T06:04:26;2.60;99.90
42913;DHT22;50720;54.324;18.558;2023-02-02T06:06:56;2.60;99.90
42913;DHT22;50720;54.324;18.558;2023-02-02T06:09:27;2.70;99.90
42913;DHT22;50720;54.324;18.558;2023-02-02T06:11:57;2.70;99.90
42913;DHT22;50720;54.324;18.558;2023-02-02T06:14:27;2.70;99.90
42913;DHT22;50720;54.324;18.558;2023-02-02T06:16:56;2.70;99.90
42913;DHT22;50720;54.324;18.558;2023-02-02T06:19:26;2.70;99.90
42913;DHT22;50720;54.324;18.558;2023-02-02T06:21:55;2.70;99.90
42913;DHT22;50720;54.324;18.558;2023-02-02T06:24:26;2.70;99.90
42913;DHT22;50720;54.324;18.558;2023-02-02T06:26:56;2.70;99.90
42913;DHT22;50720;54.324;18.558;2023-02-02T06:29:25;2.70;99.90
42913;DHT22;50720;54.324;18.558;2023-02-02T06:31:55;2.80;99.90
42913;DHT22;50720;54.324;18.558;2023-02-02T06:34:25;2.70;99.90
42913;DHT22;50720;54.324;18.558;2023-02-02T06:36:55;2.70;99.90
42913;DHT22;50720;54.324;18.558;2023-02-02T06:39:26;2.70;99.90
42913;DHT22;50720;54.324;18.558;2023-02-02T06:41:55;2.60;99.90
42913;DHT22;50720;54.324;18.558;2023-02-02T06:44:32;2.60;99.90
42913;DHT22;50720;54.324;18.558;2023-02-02T06:47:02;2.50;99.90
42913;DHT22;50720;54.324;18.558;2023-02-02T06:49:31;2.40;99.90
42913;DHT22;50720;54.324;18.558;2023-02-02T06:52:01;2.40;99.90
42913;DHT22;50720;54.324;18.558;2023-02-02T06:54:32;2.30;99.90
42913;DHT22;50720;54.324;18.558;2023-02-02T06:57:01;2.30;99.90
42913;DHT22;50720;54.324;18.558;2023-02-02T06:59:31;2.20;99.90
42913;DHT22;50720;54.324;18.558;2023-02-02T07:02:00;2.20;99.90
42913;DHT22;50720;54.324;18.558;2023-02-02T07:04:30;2.20;99.90
42913;DHT22;50720;54.324;18.558;2023-02-02T07:07:00;2.20;99.90
42913;DHT22;50720;54.324;18.558;2023-02-02T07:09:33;2.20;99.90
42913;DHT22;50720;54.324;18.558;2023-02-02T07:12:02;2.20;99.90
42913;DHT22;50720;54.324;18.558;2023-02-02T07:14:32;2.20;99.90
42913;DHT22;50720;54.324;18.558;2023-02-02T07:17:01;2.20;99.90
42913;DHT22;50720;54.324;18.558;2023-02-02T07:19:31;2.20;99.90
42913;DHT22;50720;54.324;18.558;2023-02-02T07:22:01;2.20;99.90
42913;DHT22;50720;54.324;18.558;2023-02-02T07:24:31;2.10;99.90
42913;DHT22;50720;54.324;18.558;2023-02-02T07:27:01;2.20;99.90
42913;DHT22;50720;54.324;18.558;2023-02-02T07:29:31;2.20;99.90
42913;DHT22;50720;54.324;18.558;2023-02-02T07:32:01;2.10;99.90
42913;DHT22;50720;54.324;18.558;2023-02-02T07:34:30;2.20;99.90
42913;DHT22;50720;54.324;18.558;2023-02-02T07:37:00;2.20;99.90
42913;DHT22;50720;54.324;18.558;2023-02-02T07:39:29;2.20;99.90
42913;DHT22;50720;54.324;18.558;2023-02-02T07:42:00;2.20;99.90
42913;DHT22;50720;54.324;18.558;2023-02-02T07:44:30;2.20;99.90
42913;DHT22;50720;54.324;18.558;2023-02-02T07:47:00;2.20;99.90
42913;DHT22;50720;54.324;18.558;2023-02-02T07:49:29;2.20;99.90
42913;DHT22;50720;54.324;18.558;2023-02-02T07:51:59;2.20;99.90
42913;DHT22;50720;54.324;18.558;2023-02-02T07:54:29;2.30;99.90
42913;DHT22;50720;54.324;18.558;2023-02-02T07:57:01;2.30;99.90
42913;DHT22;50720;54.324;18.558;2023-02-02T07:59:30;2.30;99.90
42913;DHT22;50720;54.324;18.558;2023-02-02T08:02:00;2.40;99.90
42913;DHT22;50720;54.324;18.558;2023-02-02T08:04:29;2.50;99.90
42913;DHT22;50720;54.324;18.558;2023-02-02T08:07:00;2.50;99.90
42913;DHT22;50720;54.324;18.558;2023-02-02T08:09:29;2.60;99.90
42913;DHT22;50720;54.324;18.558;2023-02-02T08:12:01;2.60;99.90
42913;DHT22;50720;54.324;18.558;2023-02-02T08:14:30;2.70;99.90
42913;DHT22;50720;54.324;18.558;2023-02-02T08:17:00;2.80;99.90
42913;DHT22;50720;54.324;18.558;2023-02-02T08:19:30;2.90;99.90
42913;DHT22;50720;54.324;18.558;2023-02-02T08:21:59;2.90;99.90
42913;DHT22;50720;54.324;18.558;2023-02-02T08:24:29;3.00;99.90
42913;DHT22;50720;54.324;18.558;2023-02-02T08:26:59;3.00;99.90
42913;DHT22;50720;54.324;18.558;2023-02-02T08:29:30;3.00;99.90
42913;DHT22;50720;54.324;18.558;2023-02-02T08:31:59;3.00;99.90
42913;DHT22;50720;54.324;18.558;2023-02-02T08:34:29;3.10;99.90
42913;DHT22;50720;54.324;18.558;2023-02-02T08:37:01;3.10;99.90
42913;DHT22;50720;54.324;18.558;2023-02-02T08:39:31;3.20;99.90
42913;DHT22;50720;54.324;18.558;2023-02-02T08:42:00;3.20;99.90
42913;DHT22;50720;54.324;18.558;2023-02-02T08:44:31;3.20;99.90
42913;DHT22;50720;54.324;18.558;2023-02-02T08:47:20;3.30;99.90
42913;DHT22;50720;54.324;18.558;2023-02-02T08:49:50;3.40;99.90
42913;DHT22;50720;54.324;18.558;2023-02-02T08:52:19;3.30;99.90
42913;DHT22;50720;54.324;18.558;2023-02-02T08:54:52;3.10;99.90
42913;DHT22;50720;54.324;18.558;2023-02-02T08:57:21;3.00;99.90
42913;DHT22;50720;54.324;18.558;2023-02-02T08:59:52;2.90;99.90
42913;DHT22;50720;54.324;18.558;2023-02-02T09:02:22;2.90;99.90
42913;DHT22;50720;54.324;18.558;2023-02-02T09:04:51;2.90;99.90
42913;DHT22;50720;54.324;18.558;2023-02-02T09:07:21;2.90;99.90
42913;DHT22;50720;54.324;18.558;2023-02-02T09:09:50;2.90;99.90
42913;DHT22;50720;54.324;18.558;2023-02-02T09:12:22;3.00;99.90
42913;DHT22;50720;54.324;18.558;2023-02-02T09:14:54;3.00;99.90
42913;DHT22;50720;54.324;18.558;2023-02-02T09:17:24;3.10;99.90
42913;DHT22;50720;54.324;18.558;2023-02-02T09:19:55;3.10;99.90
42913;DHT22;50720;54.324;18.558;2023-02-02T09:22:25;3.10;99.90
42913;DHT22;50720;54.324;18.558;2023-02-02T09:24:55;3.10;99.90
42913;DHT22;50720;54.324;18.558;2023-02-02T09:27:25;3.20;99.90
42913;DHT22;50720;54.324;18.558;2023-02-02T09:29:56;3.20;99.90
42913;DHT22;50720;54.324;18.558;2023-02-02T09:32:25;3.10;99.90
42913;DHT22;50720;54.324;18.558;2023-02-02T09:34:55;3.10;99.90
42913;DHT22;50720;54.324;18.558;2023-02-02T09:37:25;3.00;99.90
42913;DHT22;50720;54.324;18.558;2023-02-02T09:39:54;3.00;99.90
42913;DHT22;50720;54.324;18.558;2023-02-02T09:42:38;3.10;99.90
42913;DHT22;50720;54.324;18.558;2023-02-02T09:45:19;3.20;99.90
42913;DHT22;50720;54.324;18.558;2023-02-02T09:47:54;3.40;99.90
42913;DHT22;50720;54.324;18.558;2023-02-02T09:50:44;3.60;99.90
42913;DHT22;50720;54.324;18.558;2023-02-02T09:53:20;3.40;99.90
42913;DHT22;50720;54.324;18.558;2023-02-02T09:55:52;3.10;99.90
42913;DHT22;50720;54.324;18.558;2023-02-02T09:58:25;2.90;99.90
42913;DHT22;50720;54.324;18.558;2023-02-02T10:01:02;2.80;99.90
42913;DHT22;50720;54.324;18.558;2023-02-02T10:03:36;2.70;99.90
42913;DHT22;50720;54.324;18.558;2023-02-02T10:06:18;2.70;99.90
42913;DHT22;50720;54.324;18.558;2023-02-02T10:08:52;2.80;99.90
42913;DHT22;50720;54.324;18.558;2023-02-02T10:11:30;2.80;99.90
42913;DHT22;50720;54.324;18.558;2023-02-02T10:14:05;2.70;99.90
42913;DHT22;50720;54.324;18.558;2023-02-02T10:16:39;2.80;99.90
42913;DHT22;50720;54.324;18.558;2023-02-02T10:19:10;3.00;99.90
42913;DHT22;50720;54.324;18.558;2023-02-02T10:21:45;3.00;99.90
42913;DHT22;50720;54.324;18.558;2023-02-02T10:24:19;3.20;99.90
42913;DHT22;50720;54.324;18.558;2023-02-02T10:26:51;3.30;99.90
42913;DHT22;50720;54.324;18.558;2023-02-02T10:29:31;3.40;99.90
42913;DHT22;50720;54.324;18.558;2023-02-02T10:32:21;3.30;99.90
42913;DHT22;50720;54.324;18.558;2023-02-02T10:35:20;3.00;99.90
42913;DHT22;50720;54.324;18.558;2023-02-02T10:37:58;3.00;99.90
42913;DHT22;50720;54.324;18.558;2023-02-02T10:40:41;3.00;99.90
42913;DHT22;50720;54.324;18.558;2023-02-02T10:43:46;3.10;99.90
42913;DHT22;50720;54.324;18.558;2023-02-02T10:46:23;3.10;99.90
42913;DHT22;50720;54.324;18.558;2023-02-02T10:49:11;3.20;99.90
42913;DHT22;50720;54.324;18.558;2023-02-02T10:51:48;3.20;99.90
42913;DHT22;50720;54.324;18.558;2023-02-02T10:57:53;3.20;99.90
42913;DHT22;50720;54.324;18.558;2023-02-02T11:00:30;3.30;99.90
42913;DHT22;50720;54.324;18.558;2023-02-02T11:03:03;3.40;99.90
42913;DHT22;50720;54.324;18.558;2023-02-02T11:05:35;3.50;99.90
42913;DHT22;50720;54.324;18.558;2023-02-02T11:08:29;3.80;99.90
42913;DHT22;50720;54.324;18.558;2023-02-02T11:11:09;4.20;99.90
42913;DHT22;50720;54.324;18.558;2023-02-02T11:13:42;4.80;99.90
42913;DHT22;50720;54.324;18.558;2023-02-02T11:16:19;5.40;99.90
42913;DHT22;50720;54.324;18.558;2023-02-02T11:18:49;4.90;99.90
42913;DHT22;50720;54.324;18.558;2023-02-02T11:21:23;4.80;99.90
42913;DHT22;50720;54.324;18.558;2023-02-02T11:23:55;4.90;99.90
42913;DHT22;50720;54.324;18.558;2023-02-02T11:26:26;5.50;99.90
42913;DHT22;50720;54.324;18.558;2023-02-02T11:29:13;5.90;99.90
42913;DHT22;50720;54.324;18.558;2023-02-02T11:31:44;6.40;99.90
42913;DHT22;50720;54.324;18.558;2023-02-02T11:34:19;6.60;99.90
42913;DHT22;50720;54.324;18.558;2023-02-02T11:37:02;6.20;99.90
42913;DHT22;50720;54.324;18.558;2023-02-02T11:39:32;5.50;99.90
42913;DHT22;50720;54.324;18.558;2023-02-02T11:42:04;5.10;99.90
42913;DHT22;50720;54.324;18.558;2023-02-02T11:44:37;4.40;99.90
42913;DHT22;50720;54.324;18.558;2023-02-02T11:47:17;4.00;99.90
42913;DHT22;50720;54.324;18.558;2023-02-02T11:49:49;3.80;99.90
42913;DHT22;50720;54.324;18.558;2023-02-02T11:52:22;3.60;99.90
42913;DHT22;50720;54.324;18.558;2023-02-02T11:54:56;3.50;99.90
42913;DHT22;50720;54.324;18.558;2023-02-02T11:57:27;3.50;99.90
42913;DHT22;50720;54.324;18.558;2023-02-02T12:00:15;3.40;99.90
42913;DHT22;50720;54.324;18.558;2023-02-02T12:02:47;3.90;99.90
42913;DHT22;50720;54.324;18.558;2023-02-02T12:05:35;4.20;99.90
42913;DHT22;50720;54.324;18.558;2023-02-02T12:08:08;4.60;99.90
42913;DHT22;50720;54.324;18.558;2023-02-02T12:10:42;4.90;99.90
42913;DHT22;50720;54.324;18.558;2023-02-02T12:13:22;5.20;99.90
42913;DHT22;50720;54.324;18.558;2023-02-02T12:16:00;5.50;99.90
42913;DHT22;50720;54.324;18.558;2023-02-02T12:18:44;5.00;99.90
42913;DHT22;50720;54.324;18.558;2023-02-02T12:21:23;4.20;99.90
42913;DHT22;50720;54.324;18.558;2023-02-02T12:24:12;3.50;99.90
42913;DHT22;50720;54.324;18.558;2023-02-02T12:26:48;3.10;99.90
42913;DHT22;50720;54.324;18.558;2023-02-02T12:29:47;2.70;99.90
42913;DHT22;50720;54.324;18.558;2023-02-02T12:32:41;2.40;99.90
42913;DHT22;50720;54.324;18.558;2023-02-02T12:35:22;2.20;99.90
42913;DHT22;50720;54.324;18.558;2023-02-02T12:38:02;2.00;99.90
42913;DHT22;50720;54.324;18.558;2023-02-02T12:40:50;1.90;99.90
42913;DHT22;50720;54.324;18.558;2023-02-02T12:43:35;1.70;99.90
42913;DHT22;50720;54.324;18.558;2023-02-02T12:49:16;1.60;99.90
42913;DHT22;50720;54.324;18.558;2023-02-02T12:51:59;1.50;99.90
42913;DHT22;50720;54.324;18.558;2023-02-02T12:54:51;1.50;99.90
42913;DHT22;50720;54.324;18.558;2023-02-02T12:57:34;1.50;99.90
42913;DHT22;50720;54.324;18.558;2023-02-02T13:06:52;1.60;99.90
42913;DHT22;50720;54.324;18.558;2023-02-02T13:09:30;1.70;99.90
42913;DHT22;50720;54.324;18.558;2023-02-02T13:12:05;1.70;99.90
42913;DHT22;50720;54.324;18.558;2023-02-02T13:14:40;1.80;99.90
42913;DHT22;50720;54.324;18.558;2023-02-02T13:17:14;1.80;99.90
42913;DHT22;50720;54.324;18.558;2023-02-02T13:19:47;1.90;99.90
42913;DHT22;50720;54.324;18.558;2023-02-02T13:22:24;1.90;99.90
42913;DHT22;50720;54.324;18.558;2023-02-02T13:24:57;1.90;99.90
42913;DHT22;50720;54.324;18.558;2023-02-02T13:27:29;2.00;99.90
42913;DHT22;50720;54.324;18.558;2023-02-02T13:30:04;1.90;99.90
42913;DHT22;50720;54.324;18.558;2023-02-02T13:32:41;2.00;99.90
42913;DHT22;50720;54.324;18.558;2023-02-02T13:35:16;2.10;99.90
42913;DHT22;50720;54.324;18.558;2023-02-02T13:37:52;2.20;99.90
42913;DHT22;50720;54.324;18.558;2023-02-02T13:40:26;2.20;99.90
42913;DHT22;50720;54.324;18.558;2023-02-02T13:43:04;2.30;99.90
42913;DHT22;50720;54.324;18.558;2023-02-02T13:45:49;2.60;99.90
42913;DHT22;50720;54.324;18.558;2023-02-02T13:48:27;2.70;99.90
42913;DHT22;50720;54.324;18.558;2023-02-02T13:54:19;2.70;99.90
42913;DHT22;50720;54.324;18.558;2023-02-02T13:56:59;2.60;99.90
42913;DHT22;50720;54.324;18.558;2023-02-02T13:59:50;2.60;99.90
42913;DHT22;50720;54.324;18.558;2023-02-02T14:02:28;2.70;99.90
42913;DHT22;50720;54.324;18.558;2023-02-02T14:05:01;2.70;99.90
42913;DHT22;50720;54.324;18.558;2023-02-02T14:07:37;2.60;99.90
42913;DHT22;50720;54.324;18.558;2023-02-02T14:10:22;2.60;99.90
42913;DHT22;50720;54.324;18.558;2023-02-02T14:12:53;2.60;99.90
42913;DHT22;50720;54.324;18.558;2023-02-02T14:15:37;2.60;99.90
42913;DHT22;50720;54.324;18.558;2023-02-02T14:18:08;2.40;99.90
42913;DHT22;50720;54.324;18.558;2023-02-02T14:20:44;2.50;99.90
42913;DHT22;50720;54.324;18.558;2023-02-02T14:23:53;2.50;99.90
42913;DHT22;50720;54.324;18.558;2023-02-02T14:26:42;2.50;99.90
42913;DHT22;50720;54.324;18.558;2023-02-02T14:29:34;2.40;99.90
42913;DHT22;50720;54.324;18.558;2023-02-02T14:32:27;2.30;99.90
42913;DHT22;50720;54.324;18.558;2023-02-02T14:34:59;2.30;99.90
42913;DHT22;50720;54.324;18.558;2023-02-02T14:37:55;2.30;99.90
42913;DHT22;50720;54.324;18.558;2023-02-02T14:40:33;2.30;99.90
42913;DHT22;50720;54.324;18.558;2023-02-02T14:43:20;2.30;99.90
42913;DHT22;50720;54.324;18.558;2023-02-02T14:46:22;2.20;99.90
42913;DHT22;50720;54.324;18.558;2023-02-02T14:49:15;2.20;99.90
42913;DHT22;50720;54.324;18.558;2023-02-02T14:52:00;2.10;99.90
42913;DHT22;50720;54.324;18.558;2023-02-02T14:54:37;2.00;99.90
42913;DHT22;50720;54.324;18.558;2023-02-02T14:57:22;2.00;99.90
42913;DHT22;50720;54.324;18.558;2023-02-02T14:59:54;1.90;99.90
42913;DHT22;50720;54.324;18.558;2023-02-02T15:02:32;1.90;99.90
42913;DHT22;50720;54.324;18.558;2023-02-02T15:05:41;1.80;99.90
42913;DHT22;50720;54.324;18.558;2023-02-02T15:08:25;1.70;99.90
42913;DHT22;50720;54.324;18.558;2023-02-02T15:10:58;1.60;99.90
42913;DHT22;50720;54.324;18.558;2023-02-02T15:13:33;1.40;99.90
42913;DHT22;50720;54.324;18.558;2023-02-02T15:16:10;1.30;99.90
42913;DHT22;50720;54.324;18.558;2023-02-02T15:18:44;1.30;99.90
42913;DHT22;50720;54.324;18.558;2023-02-02T15:21:18;1.30;99.90
42913;DHT22;50720;54.324;18.558;2023-02-02T15:23:52;1.30;99.90
42913;DHT22;50720;54.324;18.558;2023-02-02T15:26:26;1.30;99.90
42913;DHT22;50720;54.324;18.558;2023-02-02T15:28:58;1.30;99.90
42913;DHT22;50720;54.324;18.558;2023-02-02T15:31:34;1.30;99.90
42913;DHT22;50720;54.324;18.558;2023-02-02T15:34:13;1.30;99.90
42913;DHT22;50720;54.324;18.558;2023-02-02T15:36:46;1.30;99.90
42913;DHT22;50720;54.324;18.558;2023-02-02T15:39:26;1.30;99.90
42913;DHT22;50720;54.324;18.558;2023-02-02T15:41:58;1.30;99.90
42913;DHT22;50720;54.324;18.558;2023-02-02T15:44:45;1.30;99.90
42913;DHT22;50720;54.324;18.558;2023-02-02T15:47:18;1.40;99.90
42913;DHT22;50720;54.324;18.558;2023-02-02T15:49:48;1.40;99.90
42913;DHT22;50720;54.324;18.558;2023-02-02T15:52:23;1.30;99.90
42913;DHT22;50720;54.324;18.558;2023-02-02T15:54:57;1.30;99.90
42913;DHT22;50720;54.324;18.558;2023-02-02T15:57:29;1.20;99.90
42913;DHT22;50720;54.324;18.558;2023-02-02T16:00:02;1.20;99.90
42913;DHT22;50720;54.324;18.558;2023-02-02T16:02:45;1.30;99.90
42913;DHT22;50720;54.324;18.558;2023-02-02T16:05:41;1.20;99.90
42913;DHT22;50720;54.324;18.558;2023-02-02T16:08:16;1.30;99.90
42913;DHT22;50720;54.324;18.558;2023-02-02T16:10:48;1.20;99.90
42913;DHT22;50720;54.324;18.558;2023-02-02T16:13:24;1.20;99.90
42913;DHT22;50720;54.324;18.558;2023-02-02T16:15:55;1.20;99.90
42913;DHT22;50720;54.324;18.558;2023-02-02T16:18:25;1.20;99.90
42913;DHT22;50720;54.324;18.558;2023-02-02T16:20:55;1.20;99.90
42913;DHT22;50720;54.324;18.558;2023-02-02T16:23:30;1.20;99.90
42913;DHT22;50720;54.324;18.558;2023-02-02T16:26:04;1.20;99.90
42913;DHT22;50720;54.324;18.558;2023-02-02T16:28:35;1.20;99.90
42913;DHT22;50720;54.324;18.558;2023-02-02T16:31:05;1.20;99.90
42913;DHT22;50720;54.324;18.558;2023-02-02T16:33:38;1.20;99.90
42913;DHT22;50720;54.324;18.558;2023-02-02T16:36:17;1.30;99.90